createdAt,value
2022-08-26T00:00:41.196Z,1008.11
2022-08-26T00:01:41.255Z,1008.11
2022-08-26T00:02:41.183Z,1008.11
2022-08-26T00:03:41.187Z,1008.11
2022-08-26T00:04:41.181Z,1008.12
2022-08-26T00:05:41.165Z,1008.13
2022-08-26T00:06:42.371Z,1008.13
2022-08-26T00:07:41.148Z,1008.14
2022-08-26T00:08:41.129Z,1008.14
2022-08-26T00:09:41.113Z,1008.15
2022-08-26T00:10:41.097Z,1008.15
2022-08-26T00:11:41.101Z,1008.15
2022-08-26T00:12:41.120Z,1008.15
2022-08-26T00:13:41.061Z,1008.15
2022-08-26T00:14:41.092Z,1008.16
2022-08-26T00:15:41.074Z,1008.16
2022-08-26T00:16:48.026Z,1008.17
2022-08-26T00:17:41.057Z,1008.17
2022-08-26T00:18:41.038Z,1008.18
2022-08-26T00:19:41.000Z,1008.17
2022-08-26T00:20:41.002Z,1008.17
2022-08-26T00:21:41.020Z,1008.18
2022-08-26T00:22:40.980Z,1008.18
2022-08-26T00:23:40.945Z,1008.19
2022-08-26T00:24:41.010Z,1008.20
2022-08-26T00:25:42.592Z,1008.21
2022-08-26T00:26:41.491Z,1008.27
2022-08-26T00:27:40.929Z,1008.40
2022-08-26T00:28:41.170Z,1008.45
2022-08-26T00:29:40.906Z,1008.44
2022-08-26T00:30:40.918Z,1008.35
2022-08-26T00:31:41.002Z,1008.32
2022-08-26T00:32:40.924Z,1008.33
2022-08-26T00:33:40.893Z,1008.34
2022-08-26T00:34:40.858Z,1008.41
2022-08-26T00:35:40.857Z,1008.45
2022-08-26T00:36:40.978Z,1008.39
2022-08-26T00:37:40.819Z,1008.31
2022-08-26T00:38:40.833Z,1008.29
2022-08-26T00:39:40.862Z,1008.29
2022-08-26T00:40:40.842Z,1008.29
2022-08-26T00:41:40.840Z,1008.32
2022-08-26T00:42:40.790Z,1008.35
2022-08-26T00:43:47.539Z,1008.38
2022-08-26T00:44:40.775Z,1008.41
2022-08-26T00:45:40.802Z,1008.40
2022-08-26T00:46:45.020Z,1008.37
2022-08-26T00:47:40.783Z,1008.37
2022-08-26T00:48:40.759Z,1008.36
2022-08-26T00:49:40.747Z,1008.36
2022-08-26T00:50:40.714Z,1008.37
2022-08-26T00:51:40.919Z,1008.39
2022-08-26T00:52:40.713Z,1008.40
2022-08-26T00:53:41.489Z,1008.39
2022-08-26T00:54:42.350Z,1008.38
2022-08-26T00:55:40.655Z,1008.37
2022-08-26T00:56:40.672Z,1008.35
2022-08-26T00:57:40.616Z,1008.34
2022-08-26T00:58:40.643Z,1008.36
2022-08-26T00:59:40.615Z,1008.37
2022-08-26T01:00:40.644Z,1008.40
2022-08-26T01:01:40.605Z,1008.41
2022-08-26T01:02:40.924Z,1008.39
2022-08-26T01:03:40.556Z,1008.40
2022-08-26T01:04:40.569Z,1008.39
2022-08-26T01:05:40.537Z,1008.40
2022-08-26T01:06:40.565Z,1008.45
2022-08-26T01:07:40.534Z,1008.46
2022-08-26T01:08:40.767Z,1008.44
2022-08-26T01:09:40.524Z,1008.41
2022-08-26T01:10:40.760Z,1008.41
2022-08-26T01:11:40.550Z,1008.42
2022-08-26T01:12:40.515Z,1008.42
2022-08-26T01:13:40.467Z,1008.40
2022-08-26T01:14:40.497Z,1008.38
2022-08-26T01:15:40.504Z,1008.38
2022-08-26T01:16:40.506Z,1008.38
2022-08-26T01:17:40.443Z,1008.40
2022-08-26T01:18:40.425Z,1008.40
2022-08-26T01:19:40.445Z,1008.39
2022-08-26T01:20:40.411Z,1008.38
2022-08-26T01:21:40.587Z,1008.39
2022-08-26T01:22:40.406Z,1008.39
2022-08-26T01:23:40.400Z,1008.38
2022-08-26T01:24:40.376Z,1008.38
2022-08-26T01:25:40.340Z,1008.38
2022-08-26T01:26:40.381Z,1008.38
2022-08-26T01:27:40.378Z,1008.38
2022-08-26T01:28:40.315Z,1008.36
2022-08-26T01:29:40.313Z,1008.34
2022-08-26T01:30:40.341Z,1008.30
2022-08-26T01:31:40.311Z,1008.29
2022-08-26T01:32:40.312Z,1008.26
2022-08-26T01:33:42.096Z,1008.24
2022-08-26T01:34:40.313Z,1008.23
2022-08-26T01:35:40.242Z,1008.22
2022-08-26T01:36:40.260Z,1008.23
2022-08-26T01:37:40.470Z,1008.24
2022-08-26T01:38:40.248Z,1008.24
2022-08-26T01:39:40.224Z,1008.24
2022-08-26T01:40:40.215Z,1008.26
2022-08-26T01:41:40.426Z,1008.27
2022-08-26T01:42:40.254Z,1008.25
2022-08-26T01:43:40.165Z,1008.27
2022-08-26T01:44:40.186Z,1008.28
2022-08-26T01:45:40.231Z,1008.29
2022-08-26T01:46:40.181Z,1008.30
2022-08-26T01:47:40.138Z,1008.31
2022-08-26T01:48:40.146Z,1008.32
2022-08-26T01:49:40.106Z,1008.32
2022-08-26T01:50:40.149Z,1008.33
2022-08-26T01:51:40.108Z,1008.33
2022-08-26T01:52:40.115Z,1008.35
2022-08-26T01:53:41.801Z,1008.38
2022-08-26T01:54:40.105Z,1008.40
2022-08-26T01:55:40.078Z,1008.43
2022-08-26T01:56:40.086Z,1008.44
2022-08-26T01:57:40.070Z,1008.45
2022-08-26T01:58:40.045Z,1008.49
2022-08-26T01:59:40.025Z,1008.51
2022-08-26T02:00:40.086Z,1008.58
2022-08-26T02:01:40.234Z,1008.57
2022-08-26T02:02:40.001Z,1008.57
2022-08-26T02:03:40.040Z,1008.56
2022-08-26T02:04:40.043Z,1008.55
2022-08-26T02:05:40.720Z,1008.56
2022-08-26T02:06:39.968Z,1008.57
2022-08-26T02:07:39.967Z,1008.60
2022-08-26T02:08:39.979Z,1008.60
2022-08-26T02:09:41.383Z,1008.60
2022-08-26T02:10:39.910Z,1008.59
2022-08-26T02:11:39.907Z,1008.59
2022-08-26T02:12:40.623Z,1008.59
2022-08-26T02:13:39.916Z,1008.60
2022-08-26T02:14:43.752Z,1008.61
2022-08-26T02:15:39.850Z,1008.62
2022-08-26T02:16:39.983Z,1008.62
2022-08-26T02:17:39.871Z,1008.63
2022-08-26T02:18:40.084Z,1008.64
2022-08-26T02:19:40.118Z,1008.64
2022-08-26T02:20:39.864Z,1008.63
2022-08-26T02:21:39.812Z,1008.65
2022-08-26T02:22:39.791Z,1008.66
2022-08-26T02:23:39.775Z,1008.67
2022-08-26T02:24:39.793Z,1008.69
2022-08-26T02:25:39.764Z,1008.71
2022-08-26T02:26:39.779Z,1008.71
2022-08-26T02:27:39.735Z,1008.71
2022-08-26T02:28:39.788Z,1008.70
2022-08-26T02:29:39.785Z,1008.69
2022-08-26T02:30:39.984Z,1008.69
2022-08-26T02:31:39.724Z,1008.70
2022-08-26T02:32:40.088Z,1008.72
2022-08-26T02:33:43.130Z,1008.72
2022-08-26T02:34:39.674Z,1008.73
2022-08-26T02:35:39.663Z,1008.73
2022-08-26T02:36:39.705Z,1008.73
2022-08-26T02:37:39.662Z,1008.73
2022-08-26T02:38:39.759Z,1008.71
2022-08-26T02:39:39.616Z,1008.71
2022-08-26T02:40:39.633Z,1008.71
2022-08-26T02:41:44.782Z,1008.71
2022-08-26T02:42:40.309Z,1008.70
2022-08-26T02:43:39.624Z,1008.68
2022-08-26T02:44:39.598Z,1008.66
2022-08-26T02:45:39.830Z,1008.67
2022-08-26T02:46:39.930Z,1008.67
2022-08-26T02:47:39.832Z,1008.68
2022-08-26T02:48:39.543Z,1008.68
2022-08-26T02:49:39.587Z,1008.68
2022-08-26T02:50:39.516Z,1008.67
2022-08-26T02:51:39.528Z,1008.70
2022-08-26T02:52:39.502Z,1008.70
2022-08-26T02:53:39.498Z,1008.70
2022-08-26T02:54:39.476Z,1008.70
2022-08-26T02:55:39.514Z,1008.71
2022-08-26T02:56:39.470Z,1008.72
2022-08-26T02:57:39.481Z,1008.75
2022-08-26T02:58:39.465Z,1008.75
2022-08-26T02:59:39.456Z,1008.75
2022-08-26T03:00:39.461Z,1008.73
2022-08-26T03:01:39.506Z,1008.73
2022-08-26T03:02:39.381Z,1008.72
2022-08-26T03:03:39.402Z,1008.74
2022-08-26T03:04:39.631Z,1008.75
2022-08-26T03:05:39.383Z,1008.73
2022-08-26T03:06:39.408Z,1008.75
2022-08-26T03:07:39.369Z,1008.77
2022-08-26T03:08:39.338Z,1008.80
2022-08-26T03:09:39.395Z,1008.81
2022-08-26T03:10:39.326Z,1008.80
2022-08-26T03:11:39.341Z,1008.78
2022-08-26T03:12:39.317Z,1008.77
2022-08-26T03:13:39.305Z,1008.76
2022-08-26T03:14:39.283Z,1008.75
2022-08-26T03:15:39.275Z,1008.75
2022-08-26T03:16:39.267Z,1008.74
2022-08-26T03:17:39.300Z,1008.73
2022-08-26T03:18:39.269Z,1008.73
2022-08-26T03:19:39.255Z,1008.73
2022-08-26T03:20:39.214Z,1008.71
2022-08-26T03:21:39.233Z,1008.72
2022-08-26T03:22:39.248Z,1008.73
2022-08-26T03:23:39.204Z,1008.76
2022-08-26T03:24:39.199Z,1008.77
2022-08-26T03:25:39.174Z,1008.78
2022-08-26T03:26:39.196Z,1008.78
2022-08-26T03:27:39.160Z,1008.78
2022-08-26T03:28:39.146Z,1008.75
2022-08-26T03:29:39.379Z,1008.76
2022-08-26T03:30:39.130Z,1008.77
2022-08-26T03:31:39.203Z,1008.78
2022-08-26T03:32:39.119Z,1008.80
2022-08-26T03:33:39.126Z,1008.81
2022-08-26T03:34:39.136Z,1008.81
2022-08-26T03:35:39.320Z,1008.82
2022-08-26T03:36:39.071Z,1008.82
2022-08-26T03:37:39.299Z,1008.82
2022-08-26T03:38:39.068Z,1008.82
2022-08-26T03:39:39.084Z,1008.82
2022-08-26T03:40:39.039Z,1008.84
2022-08-26T03:41:39.035Z,1008.85
2022-08-26T03:42:39.025Z,1008.87
2022-08-26T03:43:39.004Z,1008.87
2022-08-26T03:44:42.245Z,1008.89
2022-08-26T03:45:39.001Z,1008.91
2022-08-26T03:46:39.042Z,1008.92
2022-08-26T03:47:38.987Z,1008.93
2022-08-26T03:48:38.986Z,1008.93
2022-08-26T03:49:38.952Z,1008.90
2022-08-26T03:50:38.931Z,1008.89
2022-08-26T03:51:39.106Z,1008.88
2022-08-26T03:52:43.563Z,1008.88
2022-08-26T03:53:38.926Z,1008.87
2022-08-26T03:54:39.120Z,1008.88
2022-08-26T03:55:38.877Z,1008.89
2022-08-26T03:56:38.873Z,1008.90
2022-08-26T03:57:38.881Z,1008.91
2022-08-26T03:58:38.856Z,1008.93
2022-08-26T03:59:38.873Z,1008.95
2022-08-26T04:00:38.826Z,1008.96
2022-08-26T04:01:38.912Z,1008.98
2022-08-26T04:02:38.900Z,1008.99
2022-08-26T04:03:38.738Z,1009.00
2022-08-26T04:04:38.778Z,1009.01
2022-08-26T04:05:38.774Z,1009.01
2022-08-26T04:06:38.709Z,1009.01
2022-08-26T04:07:38.705Z,1009.02
2022-08-26T04:08:38.806Z,1009.01
2022-08-26T04:09:38.722Z,1009.02
2022-08-26T04:10:38.697Z,1009.00
2022-08-26T04:11:39.274Z,1009.00
2022-08-26T04:12:38.722Z,1009.01
2022-08-26T04:13:38.646Z,1009.00
2022-08-26T04:14:38.637Z,1009.01
2022-08-26T04:15:38.617Z,1009.02
2022-08-26T04:16:38.597Z,1009.02
2022-08-26T04:17:38.629Z,1009.02
2022-08-26T04:18:40.600Z,1009.01
2022-08-26T04:19:38.590Z,1008.99
2022-08-26T04:20:38.566Z,1008.99
2022-08-26T04:21:38.591Z,1008.99
2022-08-26T04:22:38.539Z,1008.98
2022-08-26T04:23:47.484Z,1008.98
2022-08-26T04:24:38.502Z,1008.99
2022-08-26T04:25:38.516Z,1008.99
2022-08-26T04:26:39.503Z,1008.98
2022-08-26T04:27:38.515Z,1008.99
2022-08-26T04:28:38.494Z,1008.99
2022-08-26T04:29:38.478Z,1009.00
2022-08-26T04:30:38.451Z,1009.00
2022-08-26T04:31:38.495Z,1009.00
2022-08-26T04:32:38.438Z,1009.01
2022-08-26T04:33:41.732Z,1009.01
2022-08-26T04:34:38.455Z,1009.02
2022-08-26T04:35:38.417Z,1009.03
2022-08-26T04:36:38.402Z,1009.04
2022-08-26T04:37:38.402Z,1009.05
2022-08-26T04:38:38.370Z,1009.06
2022-08-26T04:39:38.363Z,1009.07
2022-08-26T04:40:38.379Z,1009.07
2022-08-26T04:41:38.351Z,1009.09
2022-08-26T04:42:38.350Z,1009.10
2022-08-26T04:43:39.049Z,1009.10
2022-08-26T04:44:38.311Z,1009.10
2022-08-26T04:45:38.327Z,1009.09
2022-08-26T04:46:39.765Z,1009.09
2022-08-26T04:47:38.296Z,1009.11
2022-08-26T04:48:38.275Z,1009.12
2022-08-26T04:49:38.273Z,1009.14
2022-08-26T04:50:38.249Z,1009.14
2022-08-26T04:51:38.264Z,1009.15
2022-08-26T04:52:38.215Z,1009.16
2022-08-26T04:53:38.206Z,1009.16
2022-08-26T04:54:38.193Z,1009.16
2022-08-26T04:55:42.704Z,1009.15
2022-08-26T04:56:38.225Z,1009.16
2022-08-26T04:57:38.252Z,1009.17
2022-08-26T04:58:38.171Z,1009.18
2022-08-26T04:59:39.441Z,1009.20
2022-08-26T05:00:38.365Z,1009.23
2022-08-26T05:01:39.697Z,1009.24
2022-08-26T05:02:38.134Z,1009.26
2022-08-26T05:03:38.167Z,1009.29
2022-08-26T05:04:38.110Z,1009.30
2022-08-26T05:05:38.095Z,1009.31
2022-08-26T05:06:38.082Z,1009.30
2022-08-26T05:07:38.076Z,1009.31
2022-08-26T05:08:38.080Z,1009.31
2022-08-26T05:09:38.068Z,1009.30
2022-08-26T05:10:38.059Z,1009.30
2022-08-26T05:11:38.042Z,1009.31
2022-08-26T05:12:38.000Z,1009.31
2022-08-26T05:13:38.005Z,1009.32
2022-08-26T05:14:38.034Z,1009.33
2022-08-26T05:15:38.292Z,1009.34
2022-08-26T05:16:40.399Z,1009.35
2022-08-26T05:17:37.983Z,1009.36
2022-08-26T05:18:37.980Z,1009.38
2022-08-26T05:19:38.594Z,1009.38
2022-08-26T05:20:37.950Z,1009.39
2022-08-26T05:21:37.926Z,1009.40
2022-08-26T05:22:37.913Z,1009.41
2022-08-26T05:23:37.921Z,1009.42
2022-08-26T05:24:37.900Z,1009.43
2022-08-26T05:25:37.919Z,1009.43
2022-08-26T05:26:37.856Z,1009.43
2022-08-26T05:27:37.884Z,1009.41
2022-08-26T05:28:37.877Z,1009.41
2022-08-26T05:29:38.110Z,1009.42
2022-08-26T05:30:37.816Z,1009.42
2022-08-26T05:31:37.824Z,1009.43
2022-08-26T05:32:37.805Z,1009.44
2022-08-26T05:33:37.813Z,1009.45
2022-08-26T05:34:37.777Z,1009.45
2022-08-26T05:35:37.813Z,1009.45
2022-08-26T05:36:37.863Z,1009.46
2022-08-26T05:37:37.770Z,1009.46
2022-08-26T05:38:37.769Z,1009.46
2022-08-26T05:39:37.730Z,1009.46
2022-08-26T05:40:37.799Z,1009.47
2022-08-26T05:41:38.361Z,1009.48
2022-08-26T05:42:37.678Z,1009.48
2022-08-26T05:43:37.714Z,1009.49
2022-08-26T05:44:53.829Z,1009.49
2022-08-26T05:45:39.436Z,1009.49
2022-08-26T05:46:37.719Z,1009.50
2022-08-26T05:47:38.507Z,1009.50
2022-08-26T05:48:37.648Z,1009.50
2022-08-26T05:49:37.636Z,1009.52
2022-08-26T05:50:37.602Z,1009.52
2022-08-26T05:51:37.624Z,1009.52
2022-08-26T05:52:37.584Z,1009.53
2022-08-26T05:53:37.604Z,1009.53
2022-08-26T05:54:37.588Z,1009.54
2022-08-26T05:55:37.577Z,1009.54
2022-08-26T05:56:37.530Z,1009.54
2022-08-26T05:57:42.164Z,1009.55
2022-08-26T05:58:37.533Z,1009.54
2022-08-26T05:59:37.521Z,1009.54
2022-08-26T06:00:37.491Z,1009.54
2022-08-26T06:01:37.558Z,1009.54
2022-08-26T06:02:37.577Z,1009.54
2022-08-26T06:03:37.499Z,1009.55
2022-08-26T06:04:37.455Z,1009.57
2022-08-26T06:05:39.109Z,1009.57
2022-08-26T06:06:37.448Z,1009.59
2022-08-26T06:07:37.425Z,1009.60
2022-08-26T06:08:37.445Z,1009.61
2022-08-26T06:09:37.415Z,1009.62
2022-08-26T06:10:37.418Z,1009.63
2022-08-26T06:11:37.376Z,1009.63
2022-08-26T06:12:37.376Z,1009.62
2022-08-26T06:13:37.378Z,1009.61
2022-08-26T06:14:37.357Z,1009.60
2022-08-26T06:15:37.695Z,1009.59
2022-08-26T06:16:37.577Z,1009.59
2022-08-26T06:17:37.337Z,1009.59
2022-08-26T06:18:37.284Z,1009.61
2022-08-26T06:19:37.287Z,1009.62
2022-08-26T06:20:37.295Z,1009.62
2022-08-26T06:21:37.342Z,1009.63
2022-08-26T06:22:37.307Z,1009.63
2022-08-26T06:23:37.252Z,1009.63
2022-08-26T06:24:37.239Z,1009.63
2022-08-26T06:25:37.227Z,1009.62
2022-08-26T06:26:37.251Z,1009.62
2022-08-26T06:27:37.207Z,1009.61
2022-08-26T06:28:37.183Z,1009.60
2022-08-26T06:29:37.563Z,1009.60
2022-08-26T06:30:37.173Z,1009.61
2022-08-26T06:31:37.217Z,1009.61
2022-08-26T06:32:37.191Z,1009.61
2022-08-26T06:33:37.133Z,1009.63
2022-08-26T06:34:37.152Z,1009.64
2022-08-26T06:35:37.122Z,1009.66
2022-08-26T06:36:37.357Z,1009.68
2022-08-26T06:37:37.129Z,1009.74
2022-08-26T06:38:37.139Z,1009.73
2022-08-26T06:39:41.188Z,1009.74
2022-08-26T06:40:37.079Z,1009.75
2022-08-26T06:41:41.333Z,1009.77
2022-08-26T06:42:37.111Z,1009.77
2022-08-26T06:43:37.115Z,1009.77
2022-08-26T06:44:37.042Z,1009.76
2022-08-26T06:45:37.146Z,1009.77
2022-08-26T06:46:37.067Z,1009.77
2022-08-26T06:47:37.115Z,1009.77
2022-08-26T06:48:36.995Z,1009.79
2022-08-26T06:49:37.326Z,1009.80
2022-08-26T06:50:37.021Z,1009.81
2022-08-26T06:51:36.987Z,1009.81
2022-08-26T06:52:36.998Z,1009.80
2022-08-26T06:53:37.021Z,1009.80
2022-08-26T06:54:36.962Z,1009.79
2022-08-26T06:55:36.934Z,1009.80
2022-08-26T06:56:36.980Z,1009.79
2022-08-26T06:57:39.737Z,1009.80
2022-08-26T06:58:36.960Z,1009.79
2022-08-26T06:59:36.907Z,1009.79
2022-08-26T07:00:36.884Z,1009.80
2022-08-26T07:01:36.930Z,1009.80
2022-08-26T07:02:37.133Z,1009.80
2022-08-26T07:03:39.719Z,1009.80
2022-08-26T07:04:36.861Z,1009.81
2022-08-26T07:05:36.837Z,1009.81
2022-08-26T07:06:36.962Z,1009.82
2022-08-26T07:07:36.855Z,1009.81
2022-08-26T07:08:36.880Z,1009.81
2022-08-26T07:09:36.917Z,1009.81
2022-08-26T07:10:36.827Z,1009.81
2022-08-26T07:11:36.740Z,1009.81
2022-08-26T07:12:36.857Z,1009.81
2022-08-26T07:13:36.745Z,1009.83
2022-08-26T07:14:36.859Z,1009.82
2022-08-26T07:15:36.729Z,1009.84
2022-08-26T07:16:36.686Z,1009.86
2022-08-26T07:17:36.718Z,1009.87
2022-08-26T07:18:36.740Z,1009.89
2022-08-26T07:19:36.881Z,1009.88
2022-08-26T07:20:36.698Z,1009.90
2022-08-26T07:21:36.671Z,1009.90
2022-08-26T07:22:36.673Z,1009.90
2022-08-26T07:23:36.613Z,1009.91
2022-08-26T07:24:36.666Z,1009.91
2022-08-26T07:25:36.676Z,1009.92
2022-08-26T07:26:36.600Z,1009.94
2022-08-26T07:27:36.606Z,1009.95
2022-08-26T07:28:36.581Z,1009.95
2022-08-26T07:29:36.645Z,1009.95
2022-08-26T07:30:36.695Z,1009.96
2022-08-26T07:31:39.479Z,1009.95
2022-08-26T07:32:36.588Z,1009.95
2022-08-26T07:33:36.549Z,1009.97
2022-08-26T07:34:36.559Z,1009.99
2022-08-26T07:35:36.618Z,1010.01
2022-08-26T07:36:36.547Z,1010.01
2022-08-26T07:37:39.264Z,1010.02
2022-08-26T07:38:36.571Z,1010.03
2022-08-26T07:39:36.483Z,1010.02
2022-08-26T07:40:36.490Z,1010.03
2022-08-26T07:41:36.457Z,1010.03
2022-08-26T07:42:36.438Z,1010.03
2022-08-26T07:43:36.468Z,1010.03
2022-08-26T07:44:36.440Z,1010.04
2022-08-26T07:45:36.515Z,1010.05
2022-08-26T07:46:36.436Z,1010.04
2022-08-26T07:47:36.375Z,1010.06
2022-08-26T07:48:36.494Z,1010.09
2022-08-26T07:49:36.371Z,1010.11
2022-08-26T07:50:50.266Z,1010.14
2022-08-26T07:51:36.439Z,1010.15
2022-08-26T07:52:36.434Z,1010.17
2022-08-26T07:53:36.334Z,1010.18
2022-08-26T07:54:36.375Z,1010.18
2022-08-26T07:55:36.296Z,1010.18
2022-08-26T07:56:36.358Z,1010.18
2022-08-26T07:57:36.260Z,1010.19
2022-08-26T07:58:36.283Z,1010.20
2022-08-26T07:59:36.245Z,1010.21
2022-08-26T08:00:36.273Z,1010.23
2022-08-26T08:01:36.243Z,1010.23
2022-08-26T08:02:36.218Z,1010.26
2022-08-26T08:03:36.214Z,1010.28
2022-08-26T08:04:36.301Z,1010.28
2022-08-26T08:05:36.231Z,1010.29
2022-08-26T08:06:37.117Z,1010.30
2022-08-26T08:07:44.177Z,1010.32
2022-08-26T08:08:36.167Z,1010.32
2022-08-26T08:09:36.147Z,1010.33
2022-08-26T08:10:36.189Z,1010.30
2022-08-26T08:11:36.113Z,1010.29
2022-08-26T08:12:36.417Z,1010.29
2022-08-26T08:13:36.098Z,1010.28
2022-08-26T08:14:36.102Z,1010.29
2022-08-26T08:15:36.034Z,1010.28
2022-08-26T08:16:39.105Z,1010.31
2022-08-26T08:17:36.032Z,1010.32
2022-08-26T08:18:36.040Z,1010.32
2022-08-26T08:19:39.033Z,1010.33
2022-08-26T08:20:36.024Z,1010.35
2022-08-26T08:21:36.032Z,1010.37
2022-08-26T08:22:36.007Z,1010.39
2022-08-26T08:23:35.978Z,1010.42
2022-08-26T08:24:35.956Z,1010.44
2022-08-26T08:25:35.923Z,1010.44
2022-08-26T08:26:36.178Z,1010.46
2022-08-26T08:27:35.931Z,1010.46
2022-08-26T08:28:35.904Z,1010.47
2022-08-26T08:29:35.894Z,1010.48
2022-08-26T08:30:35.934Z,1010.48
2022-08-26T08:32:35.877Z,1010.50
2022-08-26T08:33:36.579Z,1010.48
2022-08-26T08:34:35.919Z,1010.48
2022-08-26T08:35:35.829Z,1010.47
2022-08-26T08:36:36.122Z,1010.48
2022-08-26T08:37:35.827Z,1010.47
2022-08-26T08:38:35.793Z,1010.47
2022-08-26T08:39:36.044Z,1010.47
2022-08-26T08:40:35.854Z,1010.46
2022-08-26T08:41:35.791Z,1010.45
2022-08-26T08:42:35.793Z,1010.45
2022-08-26T08:43:37.505Z,1010.43
2022-08-26T08:44:35.740Z,1010.44
2022-08-26T08:45:37.062Z,1010.42
2022-08-26T08:46:35.775Z,1010.42
2022-08-26T08:47:35.701Z,1010.42
2022-08-26T08:48:35.733Z,1010.42
2022-08-26T08:49:35.694Z,1010.43
2022-08-26T08:50:35.671Z,1010.47
2022-08-26T08:51:35.664Z,1010.46
2022-08-26T08:52:35.670Z,1010.48
2022-08-26T08:53:35.626Z,1010.49
2022-08-26T08:54:35.637Z,1010.50
2022-08-26T08:55:35.653Z,1010.50
2022-08-26T08:56:35.843Z,1010.50
2022-08-26T08:57:35.612Z,1010.51
2022-08-26T08:58:35.607Z,1010.50
2022-08-26T08:59:35.568Z,1010.50
2022-08-26T09:00:39.123Z,1010.50
2022-08-26T09:01:35.625Z,1010.51
2022-08-26T09:02:35.597Z,1010.50
2022-08-26T09:03:35.556Z,1010.51
2022-08-26T09:04:35.527Z,1010.50
2022-08-26T09:05:37.631Z,1010.52
2022-08-26T09:06:35.577Z,1010.52
2022-08-26T09:07:36.687Z,1010.52
2022-08-26T09:08:35.482Z,1010.52
2022-08-26T09:09:35.504Z,1010.53
2022-08-26T09:10:35.463Z,1010.53
2022-08-26T09:11:35.456Z,1010.53
2022-08-26T09:12:36.091Z,1010.51
2022-08-26T09:13:35.443Z,1010.49
2022-08-26T09:14:35.413Z,1010.48
2022-08-26T09:15:35.399Z,1010.47
2022-08-26T09:16:35.456Z,1010.46
2022-08-26T09:17:35.406Z,1010.46
2022-08-26T09:18:35.421Z,1010.47
2022-08-26T09:19:35.398Z,1010.47
2022-08-26T09:20:35.352Z,1010.47
2022-08-26T09:21:35.357Z,1010.48
2022-08-26T09:22:35.364Z,1010.47
2022-08-26T09:23:35.846Z,1010.46
2022-08-26T09:24:38.427Z,1010.46
2022-08-26T09:25:35.308Z,1010.46
2022-08-26T09:26:35.310Z,1010.46
2022-08-26T09:27:35.306Z,1010.46
2022-08-26T09:28:35.337Z,1010.48
2022-08-26T09:29:35.249Z,1010.49
2022-08-26T09:30:35.324Z,1010.49
2022-08-26T09:31:35.486Z,1010.49
2022-08-26T09:32:35.247Z,1010.48
2022-08-26T09:33:35.232Z,1010.47
2022-08-26T09:34:35.242Z,1010.47
2022-08-26T09:35:35.187Z,1010.48
2022-08-26T09:36:39.368Z,1010.50
2022-08-26T09:37:35.252Z,1010.51
2022-08-26T09:38:35.183Z,1010.51
2022-08-26T09:39:35.159Z,1010.53
2022-08-26T09:40:35.444Z,1010.53
2022-08-26T09:41:35.167Z,1010.55
2022-08-26T09:42:35.141Z,1010.55
2022-08-26T09:43:35.142Z,1010.54
2022-08-26T09:44:35.147Z,1010.54
2022-08-26T09:45:35.103Z,1010.53
2022-08-26T09:46:35.139Z,1010.51
2022-08-26T09:47:35.092Z,1010.52
2022-08-26T09:48:36.364Z,1010.52
2022-08-26T09:49:36.316Z,1010.52
2022-08-26T09:50:35.094Z,1010.52
2022-08-26T09:51:35.063Z,1010.53
2022-08-26T09:52:35.034Z,1010.53
2022-08-26T09:53:35.032Z,1010.53
2022-08-26T09:54:35.051Z,1010.53
2022-08-26T09:55:35.002Z,1010.54
2022-08-26T09:56:35.016Z,1010.55
2022-08-26T09:57:34.973Z,1010.56
2022-08-26T09:58:34.962Z,1010.55
2022-08-26T09:59:35.003Z,1010.58
2022-08-26T10:00:34.981Z,1010.57
2022-08-26T10:01:35.018Z,1010.57
2022-08-26T10:02:34.915Z,1010.58
2022-08-26T10:03:35.199Z,1010.57
2022-08-26T10:04:34.963Z,1010.55
2022-08-26T10:05:34.915Z,1010.54
2022-08-26T10:06:34.902Z,1010.54
2022-08-26T10:07:34.883Z,1010.52
2022-08-26T10:08:34.877Z,1010.52
2022-08-26T10:09:34.861Z,1010.51
2022-08-26T10:10:34.869Z,1010.51
2022-08-26T10:11:34.855Z,1010.50
2022-08-26T10:12:34.848Z,1010.52
2022-08-26T10:13:34.827Z,1010.50
2022-08-26T10:14:34.901Z,1010.50
2022-08-26T10:15:35.098Z,1010.50
2022-08-26T10:16:34.823Z,1010.49
2022-08-26T10:17:34.778Z,1010.48
2022-08-26T10:18:34.813Z,1010.47
2022-08-26T10:19:41.788Z,1010.46
2022-08-26T10:20:34.857Z,1010.44
2022-08-26T10:21:34.726Z,1010.43
2022-08-26T10:22:34.767Z,1010.43
2022-08-26T10:23:34.735Z,1010.42
2022-08-26T10:24:34.754Z,1010.41
2022-08-26T10:25:34.721Z,1010.41
2022-08-26T10:26:34.697Z,1010.41
2022-08-26T10:27:34.933Z,1010.41
2022-08-26T10:28:34.683Z,1010.40
2022-08-26T10:29:34.673Z,1010.38
2022-08-26T10:30:34.656Z,1010.38
2022-08-26T10:31:40.338Z,1010.37
2022-08-26T10:32:34.675Z,1010.35
2022-08-26T10:33:34.627Z,1010.35
2022-08-26T10:34:34.672Z,1010.33
2022-08-26T10:35:34.616Z,1010.33
2022-08-26T10:36:46.948Z,1010.33
2022-08-26T10:37:34.584Z,1010.34
2022-08-26T10:38:34.565Z,1010.35
2022-08-26T10:39:34.565Z,1010.35
2022-08-26T10:40:34.602Z,1010.37
2022-08-26T10:41:34.537Z,1010.35
2022-08-26T10:42:34.521Z,1010.37
2022-08-26T10:43:34.505Z,1010.34
2022-08-26T10:44:34.528Z,1010.32
2022-08-26T10:45:34.578Z,1010.31
2022-08-26T10:46:34.490Z,1010.30
2022-08-26T10:47:34.496Z,1010.30
2022-08-26T10:48:35.433Z,1010.29
2022-08-26T10:49:34.452Z,1010.29
2022-08-26T10:50:34.452Z,1010.28
2022-08-26T10:51:34.457Z,1010.29
2022-08-26T10:52:34.441Z,1010.28
2022-08-26T10:53:34.521Z,1010.29
2022-08-26T10:54:34.421Z,1010.27
2022-08-26T10:55:34.786Z,1010.30
2022-08-26T10:56:34.400Z,1010.29
2022-08-26T10:57:34.400Z,1010.29
2022-08-26T10:58:34.378Z,1010.29
2022-08-26T10:59:34.334Z,1010.28
2022-08-26T11:00:34.366Z,1010.30
2022-08-26T11:01:34.377Z,1010.29
2022-08-26T11:02:34.334Z,1010.29
2022-08-26T11:03:34.334Z,1010.29
2022-08-26T11:04:34.992Z,1010.28
2022-08-26T11:05:34.288Z,1010.29
2022-08-26T11:06:34.282Z,1010.28
2022-08-26T11:07:34.258Z,1010.28
2022-08-26T11:08:34.291Z,1010.28
2022-08-26T11:09:34.241Z,1010.27
2022-08-26T11:10:34.236Z,1010.26
2022-08-26T11:11:34.257Z,1010.28
2022-08-26T11:12:34.260Z,1010.26
2022-08-26T11:13:35.442Z,1010.26
2022-08-26T11:14:34.263Z,1010.26
2022-08-26T11:15:34.194Z,1010.25
2022-08-26T11:16:34.192Z,1010.26
2022-08-26T11:17:34.163Z,1010.26
2022-08-26T11:18:34.161Z,1010.28
2022-08-26T11:19:57.126Z,1010.30
2022-08-26T11:20:34.143Z,1010.30
2022-08-26T11:21:34.156Z,1010.32
2022-08-26T11:22:34.134Z,1010.32
2022-08-26T11:23:34.097Z,1010.31
2022-08-26T11:24:34.088Z,1010.30
2022-08-26T11:25:34.126Z,1010.29
2022-08-26T11:26:43.263Z,1010.27
2022-08-26T11:27:34.090Z,1010.27
2022-08-26T11:28:34.047Z,1010.27
2022-08-26T11:29:34.063Z,1010.26
2022-08-26T11:30:34.069Z,1010.27
2022-08-26T11:31:34.058Z,1010.27
2022-08-26T11:32:34.014Z,1010.26
2022-08-26T11:33:33.995Z,1010.25
2022-08-26T11:34:33.991Z,1010.25
2022-08-26T11:35:33.990Z,1010.24
2022-08-26T11:36:33.969Z,1010.25
2022-08-26T11:37:33.985Z,1010.26
2022-08-26T11:38:33.942Z,1010.27
2022-08-26T11:39:36.922Z,1010.27
2022-08-26T11:40:33.987Z,1010.28
2022-08-26T11:41:33.935Z,1010.27
2022-08-26T11:42:33.907Z,1010.26
2022-08-26T11:43:33.917Z,1010.26
2022-08-26T11:44:34.145Z,1010.24
2022-08-26T11:45:33.962Z,1010.24
2022-08-26T11:46:33.861Z,1010.22
2022-08-26T11:47:33.857Z,1010.21
2022-08-26T11:48:33.873Z,1010.19
2022-08-26T11:49:33.870Z,1010.15
2022-08-26T11:50:33.852Z,1010.15
2022-08-26T11:51:35.962Z,1010.16
2022-08-26T11:52:33.835Z,1010.15
2022-08-26T11:53:33.850Z,1010.16
2022-08-26T11:54:35.711Z,1010.15
2022-08-26T11:55:33.816Z,1010.15
2022-08-26T11:56:33.786Z,1010.15
2022-08-26T11:57:33.770Z,1010.17
2022-08-26T11:58:33.741Z,1010.17
2022-08-26T12:00:34.492Z,1010.17
2022-08-26T12:01:33.722Z,1010.15
2022-08-26T12:02:33.705Z,1010.15
2022-08-26T12:03:33.789Z,1010.15
2022-08-26T12:04:33.838Z,1010.15
2022-08-26T12:05:33.698Z,1010.17
2022-08-26T12:06:35.422Z,1010.18
2022-08-26T12:07:33.670Z,1010.18